sensor_id;sensor_type;location;lat;lon;timestamp;temperature;humidity
52565;DHT22;38460;53.106;7.004;2023-12-07T00:01:59;1.60;99.90
52565;DHT22;38460;53.106;7.004;2023-12-07T00:04:25;1.70;99.90
52565;DHT22;38460;53.106;7.004;2023-12-07T00:06:51;1.70;99.90
52565;DHT22;38460;53.106;7.004;2023-12-07T00:09:16;1.70;99.90
52565;DHT22;38460;53.106;7.004;2023-12-07T00:11:42;1.70;99.90
52565;DHT22;38460;53.106;7.004;2023-12-07T00:14:08;1.70;99.90
52565;DHT22;38460;53.106;7.004;2023-12-07T00:16:33;1.70;99.90
52565;DHT22;38460;53.106;7.004;2023-12-07T00:18:59;1.70;99.90
52565;DHT22;38460;53.106;7.004;2023-12-07T00:21:25;1.70;99.90
52565;DHT22;38460;53.106;7.004;2023-12-07T00:23:50;1.70;99.90
52565;DHT22;38460;53.106;7.004;2023-12-07T00:26:16;1.70;99.90
52565;DHT22;38460;53.106;7.004;2023-12-07T00:28:42;1.70;99.90
52565;DHT22;38460;53.106;7.004;2023-12-07T00:31:08;1.70;99.90
52565;DHT22;38460;53.106;7.004;2023-12-07T00:33:36;1.70;99.90
52565;DHT22;38460;53.106;7.004;2023-12-07T00:36:01;1.70;99.90
52565;DHT22;38460;53.106;7.004;2023-12-07T00:38:27;1.70;99.90
52565;DHT22;38460;53.106;7.004;2023-12-07T00:40:53;1.70;99.90
52565;DHT22;38460;53.106;7.004;2023-12-07T00:43:18;1.70;99.90
52565;DHT22;38460;53.106;7.004;2023-12-07T00:45:44;1.70;99.90
52565;DHT22;38460;53.106;7.004;2023-12-07T00:48:10;1.70;99.90
52565;DHT22;38460;53.106;7.004;2023-12-07T00:50:36;1.70;99.90
52565;DHT22;38460;53.106;7.004;2023-12-07T00:53:02;1.60;99.90
52565;DHT22;38460;53.106;7.004;2023-12-07T00:55:28;1.70;99.90
52565;DHT22;38460;53.106;7.004;2023-12-07T00:57:53;1.70;99.90
52565;DHT22;38460;53.106;7.004;2023-12-07T01:00:19;1.70;99.90
52565;DHT22;38460;53.106;7.004;2023-12-07T01:02:45;1.70;99.90
52565;DHT22;38460;53.106;7.004;2023-12-07T01:05:11;1.70;99.90
52565;DHT22;38460;53.106;7.004;2023-12-07T01:07:37;1.70;99.90
52565;DHT22;38460;53.106;7.004;2023-12-07T01:10:03;1.70;99.90
52565;DHT22;38460;53.106;7.004;2023-12-07T01:12:29;1.70;99.90
52565;DHT22;38460;53.106;7.004;2023-12-07T01:14:55;1.80;99.90
52565;DHT22;38460;53.106;7.004;2023-12-07T01:17:21;1.70;99.90
52565;DHT22;38460;53.106;7.004;2023-12-07T01:19:47;1.70;99.90
52565;DHT22;38460;53.106;7.004;2023-12-07T01:22:12;1.70;99.90
52565;DHT22;38460;53.106;7.004;2023-12-07T01:24:38;1.70;99.90
52565;DHT22;38460;53.106;7.004;2023-12-07T01:27:04;1.70;99.90
52565;DHT22;38460;53.106;7.004;2023-12-07T01:29:29;1.70;99.90
52565;DHT22;38460;53.106;7.004;2023-12-07T01:31:55;1.70;99.90
52565;DHT22;38460;53.106;7.004;2023-12-07T01:34:21;1.60;99.90
52565;DHT22;38460;53.106;7.004;2023-12-07T01:36:47;1.70;99.90
52565;DHT22;38460;53.106;7.004;2023-12-07T01:39:13;1.70;99.90
52565;DHT22;38460;53.106;7.004;2023-12-07T01:41:39;1.70;99.90
52565;DHT22;38460;53.106;7.004;2023-12-07T01:44:05;1.60;99.90
52565;DHT22;38460;53.106;7.004;2023-12-07T01:46:32;1.60;99.90
52565;DHT22;38460;53.106;7.004;2023-12-07T01:48:58;1.70;99.90
52565;DHT22;38460;53.106;7.004;2023-12-07T01:51:24;1.60;99.90
52565;DHT22;38460;53.106;7.004;2023-12-07T01:53:50;1.60;99.90
52565;DHT22;38460;53.106;7.004;2023-12-07T01:56:16;1.60;99.90
52565;DHT22;38460;53.106;7.004;2023-12-07T01:58:43;1.60;99.90
52565;DHT22;38460;53.106;7.004;2023-12-07T02:01:09;1.60;99.90
52565;DHT22;38460;53.106;7.004;2023-12-07T02:03:39;1.60;99.90
52565;DHT22;38460;53.106;7.004;2023-12-07T02:06:05;1.60;99.90
52565;DHT22;38460;53.106;7.004;2023-12-07T02:08:31;1.60;99.90
52565;DHT22;38460;53.106;7.004;2023-12-07T02:10:57;1.60;99.90
52565;DHT22;38460;53.106;7.004;2023-12-07T02:13:23;1.60;99.90
52565;DHT22;38460;53.106;7.004;2023-12-07T02:15:49;1.60;99.90
52565;DHT22;38460;53.106;7.004;2023-12-07T02:18:19;1.60;99.90
52565;DHT22;38460;53.106;7.004;2023-12-07T02:21:01;1.90;99.90
52565;DHT22;38460;53.106;7.004;2023-12-07T02:23:32;1.60;99.90
52565;DHT22;38460;53.106;7.004;2023-12-07T02:26:02;1.90;99.90
52565;DHT22;38460;53.106;7.004;2023-12-07T02:28:28;1.90;99.90
52565;DHT22;38460;53.106;7.004;2023-12-07T02:30:54;1.60;99.90
52565;DHT22;38460;53.106;7.004;2023-12-07T02:33:20;1.60;99.90
52565;DHT22;38460;53.106;7.004;2023-12-07T02:35:45;1.70;99.90
52565;DHT22;38460;53.106;7.004;2023-12-07T02:38:11;1.60;99.90
52565;DHT22;38460;53.106;7.004;2023-12-07T02:40:38;1.60;99.90
52565;DHT22;38460;53.106;7.004;2023-12-07T02:43:05;1.80;99.90
52565;DHT22;38460;53.106;7.004;2023-12-07T02:45:33;1.60;99.90
52565;DHT22;38460;53.106;7.004;2023-12-07T02:47:59;1.60;99.90
52565;DHT22;38460;53.106;7.004;2023-12-07T02:50:25;1.60;99.90
52565;DHT22;38460;53.106;7.004;2023-12-07T02:52:51;2.00;99.90
52565;DHT22;38460;53.106;7.004;2023-12-07T02:55:17;2.00;99.90
52565;DHT22;38460;53.106;7.004;2023-12-07T02:57:43;1.70;99.90
52565;DHT22;38460;53.106;7.004;2023-12-07T03:00:09;1.70;99.90
52565;DHT22;38460;53.106;7.004;2023-12-07T03:02:36;1.70;99.90
52565;DHT22;38460;53.106;7.004;2023-12-07T03:05:03;1.70;99.90
52565;DHT22;38460;53.106;7.004;2023-12-07T03:07:29;1.70;99.90
52565;DHT22;38460;53.106;7.004;2023-12-07T03:09:55;1.80;99.90
52565;DHT22;38460;53.106;7.004;2023-12-07T03:12:20;1.70;99.90
52565;DHT22;38460;53.106;7.004;2023-12-07T03:14:46;1.70;99.90
52565;DHT22;38460;53.106;7.004;2023-12-07T03:17:12;1.70;99.90
52565;DHT22;38460;53.106;7.004;2023-12-07T03:19:39;1.70;99.90
52565;DHT22;38460;53.106;7.004;2023-12-07T03:22:05;1.70;99.90
52565;DHT22;38460;53.106;7.004;2023-12-07T03:24:33;1.80;99.90
52565;DHT22;38460;53.106;7.004;2023-12-07T03:26:59;1.70;99.90
52565;DHT22;38460;53.106;7.004;2023-12-07T03:29:25;1.60;99.90
52565;DHT22;38460;53.106;7.004;2023-12-07T03:31:50;1.70;99.90
52565;DHT22;38460;53.106;7.004;2023-12-07T03:34:16;1.70;99.90
52565;DHT22;38460;53.106;7.004;2023-12-07T03:36:45;1.70;99.90
52565;DHT22;38460;53.106;7.004;2023-12-07T03:39:11;1.70;99.90
52565;DHT22;38460;53.106;7.004;2023-12-07T03:41:38;1.70;99.90
52565;DHT22;38460;53.106;7.004;2023-12-07T03:44:04;1.70;99.90
52565;DHT22;38460;53.106;7.004;2023-12-07T03:46:30;1.70;99.90
52565;DHT22;38460;53.106;7.004;2023-12-07T03:48:55;1.70;99.90
52565;DHT22;38460;53.106;7.004;2023-12-07T03:51:21;1.70;99.90
52565;DHT22;38460;53.106;7.004;2023-12-07T03:53:47;1.70;99.90
52565;DHT22;38460;53.106;7.004;2023-12-07T03:56:33;1.70;99.90
52565;DHT22;38460;53.106;7.004;2023-12-07T03:58:58;1.70;99.90
52565;DHT22;38460;53.106;7.004;2023-12-07T04:01:26;1.70;99.90
52565;DHT22;38460;53.106;7.004;2023-12-07T04:03:52;1.70;99.90
52565;DHT22;38460;53.106;7.004;2023-12-07T04:06:18;1.60;99.90
52565;DHT22;38460;53.106;7.004;2023-12-07T04:08:44;1.60;99.90
52565;DHT22;38460;53.106;7.004;2023-12-07T04:11:10;1.70;99.90
52565;DHT22;38460;53.106;7.004;2023-12-07T04:13:36;1.70;99.90
52565;DHT22;38460;53.106;7.004;2023-12-07T04:16:02;1.70;99.90
52565;DHT22;38460;53.106;7.004;2023-12-07T04:18:29;1.70;99.90
52565;DHT22;38460;53.106;7.004;2023-12-07T04:20:55;1.70;99.90
52565;DHT22;38460;53.106;7.004;2023-12-07T04:23:20;1.70;99.90
52565;DHT22;38460;53.106;7.004;2023-12-07T04:25:46;1.60;99.90
52565;DHT22;38460;53.106;7.004;2023-12-07T04:28:12;1.70;99.90
52565;DHT22;38460;53.106;7.004;2023-12-07T04:30:38;1.70;99.90
52565;DHT22;38460;53.106;7.004;2023-12-07T04:33:03;1.70;99.90
52565;DHT22;38460;53.106;7.004;2023-12-07T04:35:30;1.80;99.90
52565;DHT22;38460;53.106;7.004;2023-12-07T04:37:56;1.70;99.90
52565;DHT22;38460;53.106;7.004;2023-12-07T04:40:21;1.70;99.90
52565;DHT22;38460;53.106;7.004;2023-12-07T04:42:47;1.70;99.90
52565;DHT22;38460;53.106;7.004;2023-12-07T04:45:13;2.00;99.90
52565;DHT22;38460;53.106;7.004;2023-12-07T04:47:38;1.70;99.90
52565;DHT22;38460;53.106;7.004;2023-12-07T04:50:05;2.00;99.90
52565;DHT22;38460;53.106;7.004;2023-12-07T04:52:31;1.70;99.90
52565;DHT22;38460;53.106;7.004;2023-12-07T04:54:56;1.70;99.90
52565;DHT22;38460;53.106;7.004;2023-12-07T04:57:22;1.70;99.90
52565;DHT22;38460;53.106;7.004;2023-12-07T04:59:48;1.70;99.90
52565;DHT22;38460;53.106;7.004;2023-12-07T05:02:14;1.70;99.90
52565;DHT22;38460;53.106;7.004;2023-12-07T05:04:40;1.70;99.90
52565;DHT22;38460;53.106;7.004;2023-12-07T05:07:06;1.70;99.90
52565;DHT22;38460;53.106;7.004;2023-12-07T05:09:32;1.70;99.90
52565;DHT22;38460;53.106;7.004;2023-12-07T05:11:57;1.70;99.90
52565;DHT22;38460;53.106;7.004;2023-12-07T05:14:23;1.70;99.90
52565;DHT22;38460;53.106;7.004;2023-12-07T05:16:49;1.70;99.90
52565;DHT22;38460;53.106;7.004;2023-12-07T05:19:24;1.90;99.90
52565;DHT22;38460;53.106;7.004;2023-12-07T05:21:50;1.70;99.90
52565;DHT22;38460;53.106;7.004;2023-12-07T05:24:16;1.70;99.90
52565;DHT22;38460;53.106;7.004;2023-12-07T05:26:43;1.60;99.90
52565;DHT22;38460;53.106;7.004;2023-12-07T05:29:08;1.70;99.90
52565;DHT22;38460;53.106;7.004;2023-12-07T05:31:35;1.70;99.90
52565;DHT22;38460;53.106;7.004;2023-12-07T05:34:02;1.70;99.90
52565;DHT22;38460;53.106;7.004;2023-12-07T05:36:29;1.60;99.90
52565;DHT22;38460;53.106;7.004;2023-12-07T05:38:55;1.70;99.90
52565;DHT22;38460;53.106;7.004;2023-12-07T05:41:20;1.60;99.90
52565;DHT22;38460;53.106;7.004;2023-12-07T05:43:46;1.80;99.90
52565;DHT22;38460;53.106;7.004;2023-12-07T05:46:12;1.70;99.90
52565;DHT22;38460;53.106;7.004;2023-12-07T05:48:38;1.60;99.90
52565;DHT22;38460;53.106;7.004;2023-12-07T05:51:04;1.70;99.90
52565;DHT22;38460;53.106;7.004;2023-12-07T05:53:30;1.60;99.90
52565;DHT22;38460;53.106;7.004;2023-12-07T05:55:58;1.70;99.90
52565;DHT22;38460;53.106;7.004;2023-12-07T05:58:24;1.70;99.90
52565;DHT22;38460;53.106;7.004;2023-12-07T06:00:50;1.60;99.90
52565;DHT22;38460;53.106;7.004;2023-12-07T06:03:16;1.70;99.90
52565;DHT22;38460;53.106;7.004;2023-12-07T06:05:41;1.60;99.90
52565;DHT22;38460;53.106;7.004;2023-12-07T06:08:07;1.60;99.90
52565;DHT22;38460;53.106;7.004;2023-12-07T06:10:34;1.70;99.90
52565;DHT22;38460;53.106;7.004;2023-12-07T06:13:01;1.70;99.90
52565;DHT22;38460;53.106;7.004;2023-12-07T06:15:27;1.60;99.90
52565;DHT22;38460;53.106;7.004;2023-12-07T06:17:54;1.60;99.90
52565;DHT22;38460;53.106;7.004;2023-12-07T06:20:20;1.60;99.90
52565;DHT22;38460;53.106;7.004;2023-12-07T06:22:46;1.60;99.90
52565;DHT22;38460;53.106;7.004;2023-12-07T06:25:11;1.60;99.90
52565;DHT22;38460;53.106;7.004;2023-12-07T06:27:38;1.60;99.90
52565;DHT22;38460;53.106;7.004;2023-12-07T06:30:05;1.60;99.90
52565;DHT22;38460;53.106;7.004;2023-12-07T06:32:33;1.60;99.90
52565;DHT22;38460;53.106;7.004;2023-12-07T06:35:00;1.60;99.90
52565;DHT22;38460;53.106;7.004;2023-12-07T06:37:26;1.90;99.90
52565;DHT22;38460;53.106;7.004;2023-12-07T06:39:52;1.60;99.90
52565;DHT22;38460;53.106;7.004;2023-12-07T06:42:18;1.60;99.90
52565;DHT22;38460;53.106;7.004;2023-12-07T06:44:47;1.50;99.90
52565;DHT22;38460;53.106;7.004;2023-12-07T06:47:14;1.50;99.90
52565;DHT22;38460;53.106;7.004;2023-12-07T06:49:39;1.60;99.90
52565;DHT22;38460;53.106;7.004;2023-12-07T06:52:05;1.70;99.90
52565;DHT22;38460;53.106;7.004;2023-12-07T06:54:31;1.50;99.90
52565;DHT22;38460;53.106;7.004;2023-12-07T06:56:56;1.60;99.90
52565;DHT22;38460;53.106;7.004;2023-12-07T06:59:22;1.50;99.90
52565;DHT22;38460;53.106;7.004;2023-12-07T07:01:48;1.50;99.90
52565;DHT22;38460;53.106;7.004;2023-12-07T07:04:14;1.60;99.90
52565;DHT22;38460;53.106;7.004;2023-12-07T07:06:40;1.50;99.90
52565;DHT22;38460;53.106;7.004;2023-12-07T07:09:06;1.50;99.90
52565;DHT22;38460;53.106;7.004;2023-12-07T07:11:32;1.60;99.90
52565;DHT22;38460;53.106;7.004;2023-12-07T07:13:58;1.60;99.90
52565;DHT22;38460;53.106;7.004;2023-12-07T07:16:24;1.50;99.90
52565;DHT22;38460;53.106;7.004;2023-12-07T07:18:50;1.60;99.90
52565;DHT22;38460;53.106;7.004;2023-12-07T07:21:15;1.50;99.90
52565;DHT22;38460;53.106;7.004;2023-12-07T07:23:41;2.10;99.90
52565;DHT22;38460;53.106;7.004;2023-12-07T07:26:07;1.50;99.90
52565;DHT22;38460;53.106;7.004;2023-12-07T07:28:33;1.80;99.90
52565;DHT22;38460;53.106;7.004;2023-12-07T07:31:00;1.50;99.90
52565;DHT22;38460;53.106;7.004;2023-12-07T07:33:26;1.50;99.90
52565;DHT22;38460;53.106;7.004;2023-12-07T07:35:51;1.50;99.90
52565;DHT22;38460;53.106;7.004;2023-12-07T07:38:17;1.50;99.90
52565;DHT22;38460;53.106;7.004;2023-12-07T07:40:43;1.50;99.90
52565;DHT22;38460;53.106;7.004;2023-12-07T07:43:11;1.50;99.90
52565;DHT22;38460;53.106;7.004;2023-12-07T07:45:36;1.50;99.90
52565;DHT22;38460;53.106;7.004;2023-12-07T07:48:02;1.80;99.90
52565;DHT22;38460;53.106;7.004;2023-12-07T07:50:28;1.40;99.90
52565;DHT22;38460;53.106;7.004;2023-12-07T07:52:55;1.50;99.90
52565;DHT22;38460;53.106;7.004;2023-12-07T07:55:20;1.40;99.90
52565;DHT22;38460;53.106;7.004;2023-12-07T07:57:46;1.50;99.90
52565;DHT22;38460;53.106;7.004;2023-12-07T08:00:12;1.50;99.90
52565;DHT22;38460;53.106;7.004;2023-12-07T08:02:38;1.50;99.90
52565;DHT22;38460;53.106;7.004;2023-12-07T08:05:04;1.50;99.90
52565;DHT22;38460;53.106;7.004;2023-12-07T08:07:30;1.50;99.90
52565;DHT22;38460;53.106;7.004;2023-12-07T08:09:56;1.50;99.90
52565;DHT22;38460;53.106;7.004;2023-12-07T08:12:22;1.40;99.90
52565;DHT22;38460;53.106;7.004;2023-12-07T08:14:50;1.50;99.90
52565;DHT22;38460;53.106;7.004;2023-12-07T08:17:16;1.50;99.90
52565;DHT22;38460;53.106;7.004;2023-12-07T08:19:42;1.40;99.90
52565;DHT22;38460;53.106;7.004;2023-12-07T08:22:08;1.50;99.90
52565;DHT22;38460;53.106;7.004;2023-12-07T08:24:34;1.50;99.90
52565;DHT22;38460;53.106;7.004;2023-12-07T08:27:01;1.50;99.90
52565;DHT22;38460;53.106;7.004;2023-12-07T08:29:26;1.50;99.90
52565;DHT22;38460;53.106;7.004;2023-12-07T08:31:52;1.50;99.90
52565;DHT22;38460;53.106;7.004;2023-12-07T08:34:18;1.50;99.90
52565;DHT22;38460;53.106;7.004;2023-12-07T08:36:44;1.50;99.90
52565;DHT22;38460;53.106;7.004;2023-12-07T08:39:09;1.50;99.90
52565;DHT22;38460;53.106;7.004;2023-12-07T08:41:35;1.50;99.90
52565;DHT22;38460;53.106;7.004;2023-12-07T08:44:02;1.60;99.90
52565;DHT22;38460;53.106;7.004;2023-12-07T08:46:28;1.60;99.90
52565;DHT22;38460;53.106;7.004;2023-12-07T08:48:53;1.90;99.90
52565;DHT22;38460;53.106;7.004;2023-12-07T08:51:19;1.60;99.90
52565;DHT22;38460;53.106;7.004;2023-12-07T08:53:45;1.90;99.90
52565;DHT22;38460;53.106;7.004;2023-12-07T08:56:11;1.60;99.90
52565;DHT22;38460;53.106;7.004;2023-12-07T08:58:39;1.80;99.90
52565;DHT22;38460;53.106;7.004;2023-12-07T09:01:04;1.70;99.90
52565;DHT22;38460;53.106;7.004;2023-12-07T09:03:33;1.80;99.90
52565;DHT22;38460;53.106;7.004;2023-12-07T09:06:00;1.80;99.90
52565;DHT22;38460;53.106;7.004;2023-12-07T09:08:26;1.80;99.90
52565;DHT22;38460;53.106;7.004;2023-12-07T09:10:51;1.90;99.90
52565;DHT22;38460;53.106;7.004;2023-12-07T09:13:18;1.90;99.90
52565;DHT22;38460;53.106;7.004;2023-12-07T09:15:43;1.90;99.90
52565;DHT22;38460;53.106;7.004;2023-12-07T09:18:09;1.90;99.90
52565;DHT22;38460;53.106;7.004;2023-12-07T09:20:37;1.90;99.90
52565;DHT22;38460;53.106;7.004;2023-12-07T09:23:04;1.90;99.90
52565;DHT22;38460;53.106;7.004;2023-12-07T09:25:30;1.90;99.90
52565;DHT22;38460;53.106;7.004;2023-12-07T09:27:56;1.90;99.90
52565;DHT22;38460;53.106;7.004;2023-12-07T09:30:22;1.90;99.90
52565;DHT22;38460;53.106;7.004;2023-12-07T09:32:48;3.00;99.90
52565;DHT22;38460;53.106;7.004;2023-12-07T09:35:14;1.90;99.90
52565;DHT22;38460;53.106;7.004;2023-12-07T09:37:46;1.90;99.90
52565;DHT22;38460;53.106;7.004;2023-12-07T09:40:21;2.10;99.90
52565;DHT22;38460;53.106;7.004;2023-12-07T09:42:48;1.90;99.90
52565;DHT22;38460;53.106;7.004;2023-12-07T09:45:17;1.90;99.90
52565;DHT22;38460;53.106;7.004;2023-12-07T09:47:47;1.90;99.90
52565;DHT22;38460;53.106;7.004;2023-12-07T09:50:19;1.90;99.90
52565;DHT22;38460;53.106;7.004;2023-12-07T09:52:51;1.90;99.90
52565;DHT22;38460;53.106;7.004;2023-12-07T09:55:18;2.00;99.90
52565;DHT22;38460;53.106;7.004;2023-12-07T09:57:47;2.00;99.90
52565;DHT22;38460;53.106;7.004;2023-12-07T10:00:14;2.00;99.90
52565;DHT22;38460;53.106;7.004;2023-12-07T10:02:41;2.00;99.90
52565;DHT22;38460;53.106;7.004;2023-12-07T10:05:12;2.10;99.90
52565;DHT22;38460;53.106;7.004;2023-12-07T10:07:46;2.10;99.90
52565;DHT22;38460;53.106;7.004;2023-12-07T10:10:13;2.10;99.90
52565;DHT22;38460;53.106;7.004;2023-12-07T10:12:47;2.10;99.90
52565;DHT22;38460;53.106;7.004;2023-12-07T10:15:15;2.10;99.90
52565;DHT22;38460;53.106;7.004;2023-12-07T10:17:53;2.10;99.90
52565;DHT22;38460;53.106;7.004;2023-12-07T10:20:20;2.10;99.90
52565;DHT22;38460;53.106;7.004;2023-12-07T10:23:07;2.20;99.90
52565;DHT22;38460;53.106;7.004;2023-12-07T10:25:43;2.20;99.90
52565;DHT22;38460;53.106;7.004;2023-12-07T10:28:09;2.20;99.90
52565;DHT22;38460;53.106;7.004;2023-12-07T10:30:39;2.20;99.90
52565;DHT22;38460;53.106;7.004;2023-12-07T10:33:06;2.20;99.90
52565;DHT22;38460;53.106;7.004;2023-12-07T10:35:39;2.30;99.90
52565;DHT22;38460;53.106;7.004;2023-12-07T10:38:06;2.30;99.90
52565;DHT22;38460;53.106;7.004;2023-12-07T10:40:32;2.30;99.90
52565;DHT22;38460;53.106;7.004;2023-12-07T10:42:58;2.40;99.90
52565;DHT22;38460;53.106;7.004;2023-12-07T10:45:30;2.40;99.90
52565;DHT22;38460;53.106;7.004;2023-12-07T10:48:08;2.40;99.90
52565;DHT22;38460;53.106;7.004;2023-12-07T10:50:46;2.50;99.90
52565;DHT22;38460;53.106;7.004;2023-12-07T10:53:20;2.50;99.90
52565;DHT22;38460;53.106;7.004;2023-12-07T10:55:52;2.50;99.90
52565;DHT22;38460;53.106;7.004;2023-12-07T10:58:19;2.50;99.90
52565;DHT22;38460;53.106;7.004;2023-12-07T11:00:46;2.60;99.90
52565;DHT22;38460;53.106;7.004;2023-12-07T11:03:16;2.60;99.90
52565;DHT22;38460;53.106;7.004;2023-12-07T11:05:44;2.70;99.90
52565;DHT22;38460;53.106;7.004;2023-12-07T11:08:31;2.70;99.90
52565;DHT22;38460;53.106;7.004;2023-12-07T11:11:15;2.70;99.90
52565;DHT22;38460;53.106;7.004;2023-12-07T11:13:49;2.90;99.90
52565;DHT22;38460;53.106;7.004;2023-12-07T11:16:17;2.80;99.90
52565;DHT22;38460;53.106;7.004;2023-12-07T11:18:43;2.90;99.90
52565;DHT22;38460;53.106;7.004;2023-12-07T11:21:08;3.00;99.90
52565;DHT22;38460;53.106;7.004;2023-12-07T11:23:36;2.90;99.90
52565;DHT22;38460;53.106;7.004;2023-12-07T11:26:02;2.90;99.90
52565;DHT22;38460;53.106;7.004;2023-12-07T11:28:38;3.00;99.90
52565;DHT22;38460;53.106;7.004;2023-12-07T11:31:08;3.00;99.90
52565;DHT22;38460;53.106;7.004;2023-12-07T11:33:37;3.00;99.90
52565;DHT22;38460;53.106;7.004;2023-12-07T11:36:05;3.00;99.90
52565;DHT22;38460;53.106;7.004;2023-12-07T11:38:31;3.00;99.90
52565;DHT22;38460;53.106;7.004;2023-12-07T11:40:57;3.00;99.90
52565;DHT22;38460;53.106;7.004;2023-12-07T11:45:58;3.00;99.90
52565;DHT22;38460;53.106;7.004;2023-12-07T11:48:25;2.80;99.90
52565;DHT22;38460;53.106;7.004;2023-12-07T11:53:26;2.60;99.90
52565;DHT22;38460;53.106;7.004;2023-12-07T11:55:52;2.50;99.90
52565;DHT22;38460;53.106;7.004;2023-12-07T11:58:18;2.50;99.90
52565;DHT22;38460;53.106;7.004;2023-12-07T12:00:45;2.40;99.90
52565;DHT22;38460;53.106;7.004;2023-12-07T12:03:13;2.30;99.90
52565;DHT22;38460;53.106;7.004;2023-12-07T12:05:39;2.30;99.90
52565;DHT22;38460;53.106;7.004;2023-12-07T12:08:06;2.30;99.90
52565;DHT22;38460;53.106;7.004;2023-12-07T12:10:32;2.30;99.90
52565;DHT22;38460;53.106;7.004;2023-12-07T12:13:01;2.30;99.90
52565;DHT22;38460;53.106;7.004;2023-12-07T12:15:28;2.20;99.90
52565;DHT22;38460;53.106;7.004;2023-12-07T12:17:58;2.20;99.90
52565;DHT22;38460;53.106;7.004;2023-12-07T12:20:25;2.10;99.90
52565;DHT22;38460;53.106;7.004;2023-12-07T12:22:51;2.00;99.90
52565;DHT22;38460;53.106;7.004;2023-12-07T12:25:22;1.90;99.90
52565;DHT22;38460;53.106;7.004;2023-12-07T12:27:54;1.90;99.90
52565;DHT22;38460;53.106;7.004;2023-12-07T12:30:21;1.80;99.90
52565;DHT22;38460;53.106;7.004;2023-12-07T12:32:50;1.80;99.90
52565;DHT22;38460;53.106;7.004;2023-12-07T12:35:17;1.70;99.90
52565;DHT22;38460;53.106;7.004;2023-12-07T12:37:44;1.70;99.90
52565;DHT22;38460;53.106;7.004;2023-12-07T12:40:17;1.60;99.90
52565;DHT22;38460;53.106;7.004;2023-12-07T12:42:47;1.60;99.90
52565;DHT22;38460;53.106;7.004;2023-12-07T12:45:14;1.60;99.90
52565;DHT22;38460;53.106;7.004;2023-12-07T12:47:41;1.50;99.90
52565;DHT22;38460;53.106;7.004;2023-12-07T12:50:09;1.50;99.90
52565;DHT22;38460;53.106;7.004;2023-12-07T12:52:35;1.50;99.90
52565;DHT22;38460;53.106;7.004;2023-12-07T12:55:02;1.50;99.90
52565;DHT22;38460;53.106;7.004;2023-12-07T12:57:32;1.50;99.90
52565;DHT22;38460;53.106;7.004;2023-12-07T13:00:00;1.50;99.90
52565;DHT22;38460;53.106;7.004;2023-12-07T13:02:26;1.50;99.90
52565;DHT22;38460;53.106;7.004;2023-12-07T13:04:52;1.50;99.90
52565;DHT22;38460;53.106;7.004;2023-12-07T13:07:19;1.50;99.90
52565;DHT22;38460;53.106;7.004;2023-12-07T13:09:45;1.50;99.90
52565;DHT22;38460;53.106;7.004;2023-12-07T13:12:10;1.50;99.90
52565;DHT22;38460;53.106;7.004;2023-12-07T13:14:37;1.40;99.90
52565;DHT22;38460;53.106;7.004;2023-12-07T13:17:05;1.50;99.90
52565;DHT22;38460;53.106;7.004;2023-12-07T13:19:33;1.40;99.90
52565;DHT22;38460;53.106;7.004;2023-12-07T13:22:00;1.40;99.90
52565;DHT22;38460;53.106;7.004;2023-12-07T13:24:25;1.40;99.90
52565;DHT22;38460;53.106;7.004;2023-12-07T13:26:51;1.30;99.90
52565;DHT22;38460;53.106;7.004;2023-12-07T13:29:17;1.20;99.90
52565;DHT22;38460;53.106;7.004;2023-12-07T13:31:42;1.50;99.90
52565;DHT22;38460;53.106;7.004;2023-12-07T13:34:08;1.30;99.90
52565;DHT22;38460;53.106;7.004;2023-12-07T13:36:34;1.30;99.90
52565;DHT22;38460;53.106;7.004;2023-12-07T13:39:01;1.20;99.90
52565;DHT22;38460;53.106;7.004;2023-12-07T13:41:30;1.20;99.90
52565;DHT22;38460;53.106;7.004;2023-12-07T13:43:56;1.20;99.90
52565;DHT22;38460;53.106;7.004;2023-12-07T13:46:21;1.20;99.90
52565;DHT22;38460;53.106;7.004;2023-12-07T13:48:48;1.50;99.90
52565;DHT22;38460;53.106;7.004;2023-12-07T13:51:15;1.20;99.90
52565;DHT22;38460;53.106;7.004;2023-12-07T13:53:41;1.10;99.90
52565;DHT22;38460;53.106;7.004;2023-12-07T13:56:07;1.10;99.90
52565;DHT22;38460;53.106;7.004;2023-12-07T13:58:33;1.10;99.90
52565;DHT22;38460;53.106;7.004;2023-12-07T14:01:01;1.10;99.90
52565;DHT22;38460;53.106;7.004;2023-12-07T14:03:27;1.10;99.90
52565;DHT22;38460;53.106;7.004;2023-12-07T14:05:53;1.10;99.90
52565;DHT22;38460;53.106;7.004;2023-12-07T14:08:18;1.10;99.90
52565;DHT22;38460;53.106;7.004;2023-12-07T14:10:45;1.20;99.90
52565;DHT22;38460;53.106;7.004;2023-12-07T14:13:11;1.20;99.90
52565;DHT22;38460;53.106;7.004;2023-12-07T14:15:36;1.20;99.90
52565;DHT22;38460;53.106;7.004;2023-12-07T14:18:02;1.20;99.90
52565;DHT22;38460;53.106;7.004;2023-12-07T14:20:28;1.20;99.90
52565;DHT22;38460;53.106;7.004;2023-12-07T14:22:55;1.20;99.90
52565;DHT22;38460;53.106;7.004;2023-12-07T14:25:21;1.10;99.90
52565;DHT22;38460;53.106;7.004;2023-12-07T14:27:48;1.20;99.90
52565;DHT22;38460;53.106;7.004;2023-12-07T14:30:14;1.20;99.90
52565;DHT22;38460;53.106;7.004;2023-12-07T14:32:42;1.20;99.90
52565;DHT22;38460;53.106;7.004;2023-12-07T14:35:13;1.20;99.90
52565;DHT22;38460;53.106;7.004;2023-12-07T14:37:39;1.20;99.90
52565;DHT22;38460;53.106;7.004;2023-12-07T14:40:07;1.20;99.90
52565;DHT22;38460;53.106;7.004;2023-12-07T14:42:34;1.20;99.90
52565;DHT22;38460;53.106;7.004;2023-12-07T14:45:00;1.50;99.90
52565;DHT22;38460;53.106;7.004;2023-12-07T14:47:25;1.20;99.90
52565;DHT22;38460;53.106;7.004;2023-12-07T14:49:51;1.20;99.90
52565;DHT22;38460;53.106;7.004;2023-12-07T14:52:17;1.20;99.90
52565;DHT22;38460;53.106;7.004;2023-12-07T14:54:43;1.30;99.90
52565;DHT22;38460;53.106;7.004;2023-12-07T14:57:08;1.20;99.90
52565;DHT22;38460;53.106;7.004;2023-12-07T14:59:35;1.20;99.90
52565;DHT22;38460;53.106;7.004;2023-12-07T15:02:01;1.20;99.90
52565;DHT22;38460;53.106;7.004;2023-12-07T15:04:27;1.20;99.90
52565;DHT22;38460;53.106;7.004;2023-12-07T15:06:53;1.20;99.90
52565;DHT22;38460;53.106;7.004;2023-12-07T15:09:21;1.50;99.90
52565;DHT22;38460;53.106;7.004;2023-12-07T15:11:47;1.20;99.90
52565;DHT22;38460;53.106;7.004;2023-12-07T15:14:13;1.20;99.90
52565;DHT22;38460;53.106;7.004;2023-12-07T15:16:38;1.20;99.90
52565;DHT22;38460;53.106;7.004;2023-12-07T15:19:04;1.20;99.90
52565;DHT22;38460;53.106;7.004;2023-12-07T15:21:30;1.20;99.90
52565;DHT22;38460;53.106;7.004;2023-12-07T15:23:58;1.20;99.90
52565;DHT22;38460;53.106;7.004;2023-12-07T15:26:23;1.20;99.90
52565;DHT22;38460;53.106;7.004;2023-12-07T15:28:49;1.50;99.90
52565;DHT22;38460;53.106;7.004;2023-12-07T15:31:15;1.20;99.90
52565;DHT22;38460;53.106;7.004;2023-12-07T15:33:41;1.20;99.90
52565;DHT22;38460;53.106;7.004;2023-12-07T15:36:07;1.20;99.90
52565;DHT22;38460;53.106;7.004;2023-12-07T15:38:32;1.20;99.90
52565;DHT22;38460;53.106;7.004;2023-12-07T15:40:58;1.20;99.90
52565;DHT22;38460;53.106;7.004;2023-12-07T15:43:28;1.20;99.90
52565;DHT22;38460;53.106;7.004;2023-12-07T15:45:54;1.20;99.90
52565;DHT22;38460;53.106;7.004;2023-12-07T15:48:19;1.20;99.90